Time;durP1;ratioP1;P1;durP2;ratioP2;P2;SDS_P1;SDS_P2;PMS_P1;PMS_P2;Temp;Humidity;BMP_temperature;BMP_pressure;BME280_temperature;BME280_humidity;BME280_pressure;Samples;Min_cycle;Max_cycle;Signal;HPM_P1;HPM_P2
2022/01/30 00:01:36;;;;;;;36.83;17.90;;;77.50;2227.20;;;;;;5076544;28;20020;-65
2022/01/30 00:04:02;;;;;;;38.20;18.20;;;77.50;2227.20;;;;;;5076168;28;20114;-65
2022/01/30 00:06:28;;;;;;;39.83;19.20;;;77.40;2227.20;;;;;;5076100;28;20070;-65
2022/01/30 00:08:54;;;;;;;55.23;22.87;;;77.30;2227.20;;;;;;5076207;28;20082;-63
2022/01/30 00:11:24;;;;;;;42.10;20.47;;;77.30;2227.20;;;;;;5076167;28;20021;-65
2022/01/30 00:13:50;;;;;;;36.53;19.43;;;77.40;2227.20;;;;;;5074780;28;20036;-65
2022/01/30 00:16:19;;;;;;;48.37;24.37;;;77.40;2227.20;;;;;;5075784;28;20098;-65
2022/01/30 00:18:54;;;;;;;42.57;22.00;;;77.30;2227.20;;;;;;5075966;28;20048;-64
2022/01/30 00:24:10;;;;;;;47.40;22.83;;;77.00;2227.20;;;;;;5076192;28;20492;-64
2022/01/30 00:26:39;;;;;;;44.85;21.60;;;76.90;2227.20;;;;;;5075986;28;20055;-62
2022/01/30 00:29:05;;;;;;;47.83;21.53;;;76.80;2227.20;;;;;;5075883;28;20024;-63
2022/01/30 00:31:33;;;;;;;48.67;23.73;;;76.80;2227.20;;;;;;5075803;28;20409;-62
2022/01/30 00:33:59;;;;;;;51.33;22.40;;;52.10;2227.20;;;;;;5075817;28;20534;-62
2022/01/30 00:36:26;;;;;;;45.07;20.67;;;52.10;2227.20;;;;;;5075785;28;20032;-62
2022/01/30 00:38:52;;;;;;;34.00;17.40;;;52.10;2227.20;;;;;;5075690;28;20385;-62
2022/01/30 00:41:18;;;;;;;36.73;18.27;;;52.10;2227.20;;;;;;5076077;28;20081;-62
2022/01/30 00:43:44;;;;;;;32.60;16.77;;;76.80;2227.20;;;;;;5075425;28;20431;-62
2022/01/30 00:46:10;;;;;;;41.97;20.00;;;76.80;2227.20;;;;;;5075541;28;20389;-64
2022/01/30 00:48:36;;;;;;;38.40;19.10;;;76.90;2227.20;;;;;;5075454;28;20396;-63
2022/01/30 00:51:02;;;;;;;36.47;18.47;;;76.90;2227.20;;;;;;5075443;28;20029;-65
2022/01/30 00:53:27;;;;;;;36.60;17.43;;;76.90;2227.20;;;;;;5075158;28;20043;-66
2022/01/30 00:55:53;;;;;;;29.60;17.73;;;76.90;2227.20;;;;;;5075608;28;20100;-63
2022/01/30 00:58:19;;;;;;;31.43;16.77;;;77.00;2227.20;;;;;;5075331;28;20392;-63
2022/01/30 01:00:45;;;;;;;33.70;17.00;;;77.00;2227.20;;;;;;5075277;28;20051;-66
2022/01/30 01:03:11;;;;;;;42.90;19.83;;;76.90;2227.20;;;;;;5075104;28;20060;-65
2022/01/30 01:05:38;;;;;;;40.50;21.13;;;76.90;2227.20;;;;;;5074709;28;20461;-65
2022/01/30 01:11:55;;;;;;;30.83;15.73;;;77.00;2227.20;;;;;;5046375;28;20040;-63
2022/01/30 01:20:56;;;;;;;29.90;15.80;;;77.00;2227.20;;;;;;5071876;28;20369;-64
2022/01/30 01:24:54;;;;;;;31.40;14.63;;;77.00;2227.20;;;;;;5074745;28;20038;-64
2022/01/30 01:27:19;;;;;;;28.53;14.10;;;77.00;2227.20;;;;;;5074615;28;20025;-65
2022/01/30 01:29:45;;;;;;;29.00;13.13;;;77.00;2227.20;;;;;;5074534;28;20020;-65
2022/01/30 01:32:11;;;;;;;29.60;13.47;;;77.00;2227.20;;;;;;5074771;28;20020;-65
2022/01/30 01:34:39;;;;;;;32.17;14.07;;;77.00;2227.20;;;;;;5074772;28;20021;-66
2022/01/30 01:37:09;;;;;;;27.70;12.47;;;77.00;2227.20;;;;;;5074391;28;20033;-63
2022/01/30 01:39:35;;;;;;;23.80;11.97;;;77.10;2227.20;;;;;;5074561;28;20112;-64
2022/01/30 01:42:02;;;;;;;28.67;13.07;;;77.10;2227.20;;;;;;5074359;28;20032;-65
2022/01/30 01:47:28;;;;;;;28.93;13.97;;;77.20;2227.20;;;;;;5060770;28;20052;-65
2022/01/30 01:49:54;;;;;;;22.97;12.00;;;77.30;2227.20;;;;;;5074447;28;20028;-63
2022/01/30 01:52:23;;;;;;;21.90;12.13;;;77.30;2201.60;;;;;;5074174;28;20027;-65
2022/01/30 01:54:55;;;;;;;25.73;12.27;;;77.40;2176.00;;;;;;5074217;28;20031;-64
2022/01/30 01:57:22;;;;;;;28.97;13.43;;;77.40;2150.40;;;;;;5073944;28;20465;-63
2022/01/30 01:59:48;;;;;;;27.20;12.40;;;77.40;2176.00;;;;;;5074605;28;20099;-63
2022/01/30 02:02:15;;;;;;;29.80;14.33;;;77.40;2150.40;;;;;;5074040;28;20524;-63
2022/01/30 02:04:42;;;;;;;31.03;14.47;;;77.50;2150.40;;;;;;5073991;28;20361;-64
2022/01/30 02:09:52;;;;;;;31.43;14.37;;;77.50;2176.00;;;;;;5073951;28;20033;-64
2022/01/30 02:12:25;;;;;;;23.97;14.23;;;77.60;2150.40;;;;;;5073932;28;20086;-65
2022/01/30 02:25:41;;;;;;;27.93;13.73;;;77.50;2124.80;;;;;;5073965;28;20083;-62
2022/01/30 02:28:11;;;;;;;26.10;13.47;;;77.50;2124.80;;;;;;5073638;28;20465;-62
2022/01/30 02:30:41;;;;;;;25.10;13.67;;;77.50;2124.80;;;;;;5073967;28;20060;-65
2022/01/30 02:33:07;;;;;;;32.30;13.53;;;77.50;2124.80;;;;;;5073687;28;20115;-63
2022/01/30 02:35:33;;;;;;;32.00;14.20;;;77.50;2124.80;;;;;;5072289;28;20071;-63
2022/01/30 02:38:01;;;;;;;35.67;15.80;;;77.40;2124.80;;;;;;5073531;28;20020;-62
2022/01/30 02:40:29;;;;;;;32.50;15.83;;;77.40;2150.40;;;;;;5073595;28;20021;-63
2022/01/30 02:42:55;;;;;;;36.97;15.23;;;77.40;2176.00;;;;;;5073385;28;20041;-65
2022/01/30 02:45:24;;;;;;;32.63;14.90;;;77.30;2150.40;;;;;;5072188;28;20024;-63
2022/01/30 02:48:13;;;;;;;31.13;14.80;;;77.30;2176.00;;;;;;5073672;28;20388;-67
2022/01/30 02:51:08;;;;;;;29.80;14.60;;;77.20;2176.00;;;;;;5073605;28;20032;-65
2022/01/30 02:53:39;;;;;;;35.40;13.63;;;77.20;2201.60;;;;;;5073674;28;20402;-63
2022/01/30 02:56:05;;;;;;;29.00;14.43;;;77.10;2227.20;;;;;;5073585;28;20025;-63
2022/01/30 02:58:31;;;;;;;28.30;13.23;;;77.10;2227.20;;;;;;5073411;28;20408;-63
2022/01/30 03:00:57;;;;;;;26.43;13.33;;;77.10;2227.20;;;;;;5073454;28;20024;-63
2022/01/30 03:03:23;;;;;;;28.77;13.90;;;77.10;2227.20;;;;;;5073471;28;20047;-63
2022/01/30 03:05:49;;;;;;;27.63;14.53;;;77.00;2227.20;;;;;;5073260;28;20031;-65
2022/01/30 03:08:14;;;;;;;32.40;15.70;;;77.00;2227.20;;;;;;5073272;28;20025;-63
2022/01/30 03:10:40;;;;;;;30.13;14.13;;;77.00;2227.20;;;;;;5071859;28;20441;-65
2022/01/30 03:13:06;;;;;;;28.87;15.10;;;77.00;2227.20;;;;;;5073043;28;20059;-65
2022/01/30 03:15:32;;;;;;;28.80;14.37;;;77.00;2227.20;;;;;;5072949;28;20080;-64
2022/01/30 03:17:58;;;;;;;25.60;13.43;;;77.00;2227.20;;;;;;5073269;28;20021;-65
2022/01/30 03:20:24;;;;;;;33.23;15.27;;;77.00;2201.60;;;;;;5073329;28;20057;-64
2022/01/30 03:22:50;;;;;;;27.30;13.73;;;77.00;2201.60;;;;;;5072889;28;20029;-65
2022/01/30 03:25:16;;;;;;;24.03;12.70;;;77.00;2227.20;;;;;;5073156;28;20077;-64
2022/01/30 03:27:44;;;;;;;29.17;13.17;;;77.00;2227.20;;;;;;5073019;28;20497;-65
2022/01/30 03:30:18;;;;;;;27.07;12.63;;;77.00;2201.60;;;;;;5075028;28;20112;-66
2022/01/30 03:32:44;;;;;;;21.92;12.23;;;77.00;2227.20;;;;;;5077509;28;20377;-65
2022/01/30 03:35:10;;;;;;;24.93;11.27;;;77.10;2227.20;;;;;;5076774;28;20032;-66
2022/01/30 03:37:36;;;;;;;22.43;10.43;;;77.10;2201.60;;;;;;5076866;28;20032;-64
2022/01/30 03:40:02;;;;;;;21.23;10.90;;;77.10;2176.00;;;;;;5077055;28;20110;-66
2022/01/30 03:42:28;;;;;;;22.57;11.03;;;77.20;2150.40;;;;;;5076641;28;20024;-63
2022/01/30 03:44:54;;;;;;;26.47;11.20;;;77.20;2124.80;;;;;;5076910;28;20384;-64
2022/01/30 03:47:20;;;;;;;18.63;9.40;;;77.30;2124.80;;;;;;5076710;28;20025;-65
2022/01/30 03:49:45;;;;;;;21.17;9.43;;;77.30;2124.80;;;;;;5076803;28;20028;-64
2022/01/30 03:52:11;;;;;;;21.13;10.40;;;77.30;2099.20;;;;;;5076808;28;20017;-64
2022/01/30 03:54:37;;;;;;;21.13;9.27;;;77.30;2124.80;;;;;;5076787;28;20039;-65
2022/01/30 03:57:05;;;;;;;22.07;10.00;;;77.30;2124.80;;;;;;5077049;28;20086;-64
2022/01/30 03:59:30;;;;;;;23.57;9.53;;;77.30;2124.80;;;;;;5076654;28;20391;-66
2022/01/30 04:01:57;;;;;;;24.43;9.30;;;77.30;2124.80;;;;;;5076405;28;20028;-64
2022/01/30 04:04:22;;;;;;;18.50;9.23;;;77.30;2124.80;;;;;;5076564;28;20072;-64
2022/01/30 04:06:49;;;;;;;22.20;9.23;;;77.30;2124.80;;;;;;5076289;28;20028;-65
2022/01/30 04:09:15;;;;;;;19.53;8.80;;;77.30;2099.20;;;;;;5076229;28;20429;-64
2022/01/30 04:11:41;;;;;;;16.07;7.90;;;77.30;2099.20;;;;;;5076302;28;20059;-65
2022/01/30 04:14:07;;;;;;;19.73;8.67;;;77.30;2099.20;;;;;;5076293;28;20112;-64
2022/01/30 04:16:33;;;;;;;16.80;8.50;;;77.30;2073.60;;;;;;5075993;28;20431;-64
2022/01/30 04:18:59;;;;;;;21.00;8.37;;;77.30;2073.60;;;;;;5076345;28;20445;-64
2022/01/30 04:21:26;;;;;;;20.37;7.93;;;77.20;2073.60;;;;;;5076039;28;20052;-65
2022/01/30 04:23:52;;;;;;;21.70;10.50;;;77.20;2073.60;;;;;;5074621;28;20123;-65
2022/01/30 04:26:19;;;;;;;19.03;10.63;;;77.20;2099.20;;;;;;5076156;28;20107;-64
2022/01/30 04:28:45;;;;;;;18.50;9.10;;;77.30;2099.20;;;;;;5075916;28;20025;-65
2022/01/30 04:31:13;;;;;;;17.30;8.53;;;77.30;2099.20;;;;;;5076119;28;20056;-64
2022/01/30 04:33:39;;;;;;;17.50;7.80;;;77.20;2099.20;;;;;;5075824;28;20024;-65
2022/01/30 04:36:08;;;;;;;24.00;9.03;;;77.20;2099.20;;;;;;5075644;28;20043;-64
2022/01/30 04:38:54;;;;;;;20.90;8.70;;;77.20;2099.20;;;;;;5075672;28;20031;-65
2022/01/30 04:41:52;;;;;;;18.10;8.60;;;77.30;2099.20;;;;;;5074189;28;20370;-64
2022/01/30 04:55:38;;;;;;;17.93;8.60;;;77.30;2099.20;;;;;;5075367;28;20035;-65
2022/01/30 05:00:54;;;;;;;13.40;7.57;;;77.40;2124.80;;;;;;5065012;28;20524;-64
2022/01/30 05:08:18;;;;;;;15.17;7.50;;;77.30;2150.40;;;;;;5075426;28;20529;-64
2022/01/30 05:10:44;;;;;;;18.47;8.37;;;77.20;2150.40;;;;;;5075092;28;20098;-64
2022/01/30 05:13:15;;;;;;;17.23;9.30;;;77.10;2176.00;;;;;;5075103;28;20461;-64
2022/01/30 05:15:43;;;;;;;21.73;9.80;;;77.10;2201.60;;;;;;5074849;28;20041;-63
2022/01/30 05:18:10;;;;;;;19.43;8.77;;;77.00;2201.60;;;;;;5074912;28;20461;-64
2022/01/30 05:20:37;;;;;;;18.17;8.43;;;77.00;2201.60;;;;;;5074905;28;20028;-64
2022/01/30 05:23:03;;;;;;;20.50;9.97;;;77.00;2201.60;;;;;;5074759;28;20044;-64
2022/01/30 05:25:29;;;;;;;23.10;11.20;;;77.00;2201.60;;;;;;5074802;28;20110;-65
2022/01/30 05:27:55;;;;;;;25.00;12.10;;;77.00;2201.60;;;;;;5074740;28;20041;-64
2022/01/30 05:30:21;;;;;;;27.53;14.60;;;77.10;2201.60;;;;;;5074945;28;20074;-64
2022/01/30 05:32:48;;;;;;;21.27;10.87;;;77.10;2201.60;;;;;;5074600;28;20048;-64
2022/01/30 05:35:14;;;;;;;20.30;9.43;;;77.10;2201.60;;;;;;5074835;28;20028;-64
2022/01/30 05:37:42;;;;;;;19.87;9.30;;;77.10;2176.00;;;;;;5074527;28;20027;-64
2022/01/30 05:40:08;;;;;;;18.07;8.73;;;77.20;2176.00;;;;;;5074741;28;20028;-64
2022/01/30 05:42:36;;;;;;;22.33;8.80;;;77.20;2201.60;;;;;;5074294;28;20054;-64
2022/01/30 05:47:47;;;;;;;23.73;9.93;;;77.30;2150.40;;;;;;5074405;28;20020;-64
2022/01/30 05:50:13;;;;;;;30.33;12.03;;;77.30;2099.20;;;;;;5074364;28;20028;-65
2022/01/30 05:52:39;;;;;;;34.03;13.10;;;77.30;2124.80;;;;;;5073823;28;20036;-65
2022/01/30 05:55:05;;;;;;;32.35;11.80;;;77.30;2124.80;;;;;;5074783;28;20024;-64
2022/01/30 05:57:31;;;;;;;27.53;11.47;;;77.30;2124.80;;;;;;5074136;28;20029;-64
2022/01/30 05:59:57;;;;;;;22.50;10.27;;;77.30;2150.40;;;;;;5074150;28;20120;-66
2022/01/30 06:02:23;;;;;;;29.93;13.03;;;77.30;2150.40;;;;;;5073992;28;20044;-64
2022/01/30 06:04:49;;;;;;;27.30;12.33;;;77.30;2150.40;;;;;;5074078;28;20107;-64
2022/01/30 06:07:14;;;;;;;23.73;10.33;;;77.30;2124.80;;;;;;5074004;28;20358;-64
2022/01/30 06:09:40;;;;;;;22.70;10.93;;;77.40;2124.80;;;;;;5074296;28;20380;-65
2022/01/30 06:12:07;;;;;;;22.47;10.33;;;77.40;2124.80;;;;;;5073859;28;20021;-64
2022/01/30 06:14:33;;;;;;;23.17;10.50;;;77.40;2150.40;;;;;;5073601;28;20064;-64
2022/01/30 06:16:59;;;;;;;28.67;13.33;;;77.40;2124.80;;;;;;5073834;28;20110;-64
2022/01/30 06:19:26;;;;;;;23.67;11.07;;;77.40;2150.40;;;;;;5073846;28;20040;-64
2022/01/30 06:21:52;;;;;;;27.53;11.73;;;77.40;2176.00;;;;;;5073673;28;20531;-64
2022/01/30 06:24:18;;;;;;;23.67;9.83;;;77.40;2150.40;;;;;;5073911;28;20032;-64
2022/01/30 06:26:44;;;;;;;19.33;9.80;;;77.30;2150.40;;;;;;5074344;28;20035;-65
2022/01/30 06:29:10;;;;;;;24.57;11.23;;;77.40;2150.40;;;;;;5073631;28;20028;-65
2022/01/30 06:31:36;;;;;;;30.10;17.33;;;77.40;2176.00;;;;;;5073638;28;20032;-65
2022/01/30 06:34:01;;;;;;;30.73;15.60;;;77.40;2176.00;;;;;;5073514;28;20020;-65
2022/01/30 06:36:27;;;;;;;26.53;12.27;;;77.40;2176.00;;;;;;5073513;28;20047;-64
2022/01/30 06:38:53;;;;;;;24.17;11.73;;;77.30;2201.60;;;;;;5073485;28;20025;-64
2022/01/30 06:41:20;;;;;;;18.03;10.73;;;77.30;2201.60;;;;;;5073814;28;20373;-64
2022/01/30 06:43:45;;;;;;;19.27;10.33;;;77.40;2201.60;;;;;;5073427;28;20071;-65
2022/01/30 06:46:12;;;;;;;22.27;11.30;;;77.30;2176.00;;;;;;5073451;28;20493;-65
2022/01/30 06:48:38;;;;;;;20.50;9.63;;;77.40;2201.60;;;;;;5072113;28;20024;-65
2022/01/30 06:51:06;;;;;;;24.87;10.77;;;77.30;2201.60;;;;;;5073485;28;20025;-64
2022/01/30 06:53:33;;;;;;;24.97;11.70;;;77.40;2201.60;;;;;;5073379;28;20085;-64
2022/01/30 06:55:59;;;;;;;21.87;10.90;;;77.40;2201.60;;;;;;5073394;28;20017;-64
2022/01/30 06:58:25;;;;;;;23.77;10.87;;;77.40;2176.00;;;;;;5073622;28;20036;-64
2022/01/30 07:00:51;;;;;;;24.07;11.40;;;77.40;2201.60;;;;;;5073156;28;20026;-65
2022/01/30 07:03:17;;;;;;;23.13;11.17;;;77.40;2176.00;;;;;;5072547;28;20444;-66
2022/01/30 07:05:42;;;;;;;21.20;11.27;;;77.50;2201.60;;;;;;5075614;28;20604;-65
2022/01/30 07:08:08;;;;;;;24.27;11.50;;;77.50;2201.60;;;;;;5077134;28;20013;-65
2022/01/30 07:10:34;;;;;;;31.43;14.90;;;77.50;2201.60;;;;;;5076812;28;20062;-65
2022/01/30 07:13:00;;;;;;;34.97;15.77;;;77.50;2227.20;;;;;;5076720;28;20017;-66
2022/01/30 07:15:26;;;;;;;29.57;14.57;;;77.30;2227.20;;;;;;5076425;28;20055;-65
2022/01/30 07:17:52;;;;;;;25.43;11.43;;;77.40;2227.20;;;;;;5076642;28;20393;-66
2022/01/30 07:20:18;;;;;;;23.57;10.97;;;77.40;2227.20;;;;;;5076151;28;20071;-68
2022/01/30 07:22:43;;;;;;;23.73;11.47;;;77.40;2227.20;;;;;;5075879;28;20021;-66
2022/01/30 07:25:09;;;;;;;26.07;12.47;;;77.30;2227.20;;;;;;5075888;28;20058;-67
2022/01/30 07:27:36;;;;;;;32.90;17.10;;;77.20;2227.20;;;;;;5076224;28;20060;-67
2022/01/30 07:30:04;;;;;;;56.20;25.97;;;77.20;2227.20;;;;;;5076921;28;20024;-67
2022/01/30 07:32:30;;;;;;;74.37;32.80;;;77.20;2227.20;;;;;;5076846;28;20020;-66
2022/01/30 07:34:56;;;;;;;53.50;25.63;;;77.20;2227.20;;;;;;5076720;28;20029;-64
2022/01/30 07:37:23;;;;;;;66.97;30.20;;;77.20;2227.20;;;;;;5076205;28;20032;-65
2022/01/30 07:39:49;;;;;;;45.97;21.97;;;77.30;2227.20;;;;;;5077352;28;20020;-66
2022/01/30 07:42:16;;;;;;;40.83;18.35;;;77.30;2227.20;;;;;;5075118;28;20040;-67
2022/01/30 07:44:42;;;;;;;44.53;21.10;;;77.50;2227.20;;;;;;5074789;28;20068;-67
2022/01/30 07:47:08;;;;;;;40.03;19.77;;;102.40;2201.60;;;;;;5074214;28;20040;-67
2022/01/30 07:49:34;;;;;;;35.13;18.77;;;102.60;2201.60;;;;;;5075413;28;20104;-67
2022/01/30 07:51:59;;;;;;;33.50;16.87;;;102.80;2150.40;;;;;;5075664;28;20028;-63
2022/01/30 07:54:25;;;;;;;34.17;17.10;;;102.80;2099.20;;;;;;5076175;28;20016;-67
2022/01/30 07:56:51;;;;;;;36.43;17.83;;;102.80;2124.80;;;;;;5076495;28;20420;-66
2022/01/30 07:59:17;;;;;;;47.47;21.65;;;102.80;2124.80;;;;;;5076348;28;20024;-64
2022/01/30 08:01:43;;;;;;;47.33;21.35;;;103.00;2073.60;;;;;;5076216;28;20111;-64
2022/01/30 08:04:08;;;;;;;36.87;19.70;;;102.90;2073.60;;;;;;5075921;28;20032;-65
2022/01/30 08:06:35;;;;;;;41.03;21.02;;;103.00;2048.00;;;;;;5076107;28;20024;-64
2022/01/30 08:09:02;;;;;;;47.38;24.50;;;103.00;2073.60;;;;;;5075826;28;20024;-63
2022/01/30 08:11:27;;;;;;;39.63;18.27;;;103.10;2073.60;;;;;;5075806;28;20078;-63
2022/01/30 08:13:53;;;;;;;42.40;18.60;;;103.20;1996.80;;;;;;5075786;28;20020;-64
2022/01/30 08:16:20;;;;;;;35.05;18.90;;;103.30;1996.80;;;;;;5075404;28;20048;-65
2022/01/30 08:18:46;;;;;;;31.85;15.52;;;128.10;2022.40;;;;;;5075967;28;20469;-65
2022/01/30 08:21:12;;;;;;;32.65;14.85;;;128.30;1971.20;;;;;;5075996;28;20142;-65
2022/01/30 08:23:38;;;;;;;29.45;13.50;;;128.50;1945.60;;;;;;5075726;28;20036;-67
2022/01/30 08:26:03;;;;;;;31.20;14.52;;;128.80;1920.00;;;;;;5075627;28;20074;-64
2022/01/30 08:28:30;;;;;;;29.33;15.25;;;128.90;1894.40;;;;;;5074360;28;20031;-66
2022/01/30 08:30:56;;;;;;;35.30;16.45;;;128.80;1868.80;;;;;;5075576;28;20032;-66
2022/01/30 08:33:22;;;;;;;25.52;12.48;;;128.60;1894.40;;;;;;5075885;28;20035;-65
2022/01/30 08:35:49;;;;;;;25.95;12.48;;;128.80;1894.40;;;;;;5075351;28;20116;-67
2022/01/30 08:38:17;;;;;;;28.00;13.02;;;153.70;1894.40;;;;;;5074667;28;20028;-64
2022/01/30 08:40:44;;;;;;;30.42;14.32;;;154.20;1817.60;;;;;;5074685;28;20078;-65
2022/01/30 08:43:10;;;;;;;28.90;14.52;;;179.20;1792.00;;;;;;5074752;28;20111;-64
2022/01/30 08:45:36;;;;;;;27.02;13.82;;;179.20;1766.40;;;;;;5074791;28;20446;-66
2022/01/30 08:48:02;;;;;;;28.40;15.50;;;179.20;1792.00;;;;;;5074802;28;20041;-64
2022/01/30 08:50:28;;;;;;;34.92;16.75;;;154.50;1792.00;;;;;;5074489;28;20546;-64
2022/01/30 08:52:54;;;;;;;28.02;14.90;;;154.50;1817.60;;;;;;5074561;28;20020;-64
2022/01/30 08:55:20;;;;;;;29.15;14.32;;;154.40;1868.80;;;;;;5074544;28;20116;-65
2022/01/30 08:57:46;;;;;;;31.13;13.77;;;154.40;1843.20;;;;;;5073677;28;21329;-66
2022/01/30 09:00:14;;;;;;;27.77;13.80;;;154.30;1817.60;;;;;;5073990;28;20466;-66
2022/01/30 09:02:40;;;;;;;24.90;12.68;;;154.40;1843.20;;;;;;5074090;28;20017;-66
2022/01/30 09:05:08;;;;;;;28.10;13.48;;;154.40;1843.20;;;;;;5074030;28;20489;-66
2022/01/30 09:07:34;;;;;;;25.50;13.30;;;154.50;1766.40;;;;;;5074447;28;20421;-66
2022/01/30 09:10:00;;;;;;;32.33;15.90;;;179.20;1766.40;;;;;;5074313;28;20027;-67
2022/01/30 09:12:26;;;;;;;28.40;16.05;;;179.40;1766.40;;;;;;5073783;28;20377;-66
2022/01/30 09:14:53;;;;;;;29.73;14.07;;;179.70;1740.80;;;;;;5073717;28;20044;-66
2022/01/30 09:17:19;;;;;;;29.80;15.98;;;204.80;1715.20;;;;;;5073912;28;20024;-67
2022/01/30 09:19:46;;;;;;;24.98;12.82;;;205.30;1689.60;;;;;;5073705;28;20021;-67
2022/01/30 09:22:15;;;;;;;29.48;15.27;;;205.50;1561.60;;;;;;5071435;28;20020;-66
2022/01/30 09:24:41;;;;;;;26.45;13.30;;;230.40;1587.20;;;;;;5073632;28;20055;-67
2022/01/30 09:27:08;;;;;;;24.33;12.30;;;230.40;1561.60;;;;;;5071596;28;20017;-67
2022/01/30 09:29:35;;;;;;;76.28;33.72;;;230.50;1536.00;;;;;;5073019;28;20385;-66
2022/01/30 09:32:02;;;;;;;38.05;20.38;;;230.50;1561.60;;;;;;5073086;28;20016;-67
2022/01/30 09:34:29;;;;;;;25.02;12.82;;;230.80;1536.00;;;;;;5071855;28;20043;-62
2022/01/30 09:36:55;;;;;;;28.48;13.60;;;256.30;1408.00;;;;;;5073485;28;20096;-66
2022/01/30 09:39:22;;;;;;;29.35;14.55;;;307.90;1280.00;;;;;;5073228;28;20116;-67
2022/01/30 09:41:50;;;;;;;30.08;15.77;;;435.60;1049.60;;;;;;5073115;28;20352;-67
2022/01/30 09:44:18;;;;;;;23.45;12.70;;;436.10;947.20;;;;;;5073143;28;20066;-67
2022/01/30 09:46:44;;;;;;;20.75;11.50;;;486.90;870.40;;;;;;5073471;28;20020;-68
2022/01/30 09:49:11;;;;;;;21.17;12.10;;;563.60;742.40;;;;;;5073690;28;20035;-68
2022/01/30 09:51:39;;;;;;;16.20;9.25;;;486.90;819.20;;;;;;5073623;28;20025;-67
2022/01/30 09:54:07;;;;;;;16.00;8.57;;;460.90;870.40;;;;;;5073584;28;20028;-66
2022/01/30 09:56:34;;;;;;;16.77;9.05;;;410.30;947.20;;;;;;5073493;28;20029;-67
2022/01/30 09:59:00;;;;;;;20.30;10.95;;;435.20;921.60;;;;;;5073557;28;20024;-68
2022/01/30 10:01:34;;;;;;;19.75;11.02;;;460.90;896.00;;;;;;5073557;28;20055;-66
2022/01/30 10:04:01;;;;;;;16.88;10.25;;;512.80;768.00;;;;;;5053468;28;20045;-67
2022/01/30 10:06:33;;;;;;;19.52;8.27;;;461.50;844.80;;;;;;5057464;28;20078;-67
2022/01/30 10:09:09;;;;;;;20.00;10.52;;;384.60;972.80;;;;;;5072931;28;20060;-66
2022/01/30 10:11:48;;;;;;;25.05;12.80;;;333.50;1100.80;;;;;;5073110;28;20024;-67
2022/01/30 10:14:15;;;;;;;72.05;41.35;;;307.60;1228.80;;;;;;5073134;28;20081;-67
2022/01/30 10:16:45;;;;;;;25.95;13.93;;;282.30;1228.80;;;;;;5072757;28;20060;-68
2022/01/30 10:19:13;;;;;;;23.38;14.15;;;281.70;1280.00;;;;;;5072840;28;20103;-67
2022/01/30 10:21:40;;;;;;;16.90;9.38;;;256.90;1305.60;;;;;;5072395;28;20104;-68
2022/01/30 10:24:23;;;;;;;45.53;25.00;;;256.50;1305.60;;;;;;5072803;28;20032;-68
2022/01/30 10:26:50;;;;;;;518.90;330.38;;;256.40;1356.80;;;;;;5071496;28;20462;-67
2022/01/30 10:29:29;;;;;;;31.92;21.25;;;256.80;1331.20;;;;;;5072413;28;20481;-69
2022/01/30 10:32:06;;;;;;;88.55;64.50;;;282.30;1331.20;;;;;;5072457;28;20044;-67
2022/01/30 10:34:34;;;;;;;16.80;8.88;;;282.00;1331.20;;;;;;5072924;28;20013;-68
2022/01/30 10:37:18;;;;;;;16.20;7.55;;;281.60;1356.80;;;;;;5071496;28;20020;-67
2022/01/30 10:40:08;;;;;;;16.90;8.02;;;256.40;1356.80;;;;;;5071126;28;20100;-67
2022/01/30 10:42:48;;;;;;;12.57;6.38;;;256.10;1408.00;;;;;;5071771;28;20440;-68
2022/01/30 10:45:18;;;;;;;48.47;27.80;;;231.30;1433.60;;;;;;5073067;28;20035;-68
2022/01/30 10:47:45;;;;;;;26.38;11.70;;;256.80;1382.40;;;;;;5072982;28;20098;-66
2022/01/30 10:50:14;;;;;;;40.03;20.45;;;282.40;1356.80;;;;;;5073013;28;20029;-67
2022/01/30 10:53:01;;;;;;;39.45;19.63;;;282.20;1356.80;;;;;;5073056;28;20373;-67
2022/01/30 10:55:36;;;;;;;24.25;11.48;;;307.70;1305.60;;;;;;5073121;28;20017;-68
2022/01/30 10:58:04;;;;;;;18.52;9.65;;;333.00;1280.00;;;;;;5072759;28;20012;-68
2022/01/30 11:00:59;;;;;;;14.63;8.77;;;308.00;1280.00;;;;;;5071481;28;20024;-65
2022/01/30 11:03:36;;;;;;;12.93;6.60;;;359.10;1152.00;;;;;;5059785;28;20064;-68
2022/01/30 11:06:06;;;;;;;14.13;7.35;;;384.60;1126.40;;;;;;5072953;28;20020;-66
2022/01/30 11:08:34;;;;;;;27.50;13.27;;;409.80;1075.20;;;;;;5073002;28;20016;-67
2022/01/30 11:11:03;;;;;;;13.75;7.53;;;410.10;1100.80;;;;;;5072716;28;20111;-67
2022/01/30 11:13:33;;;;;;;16.13;6.00;;;486.50;972.80;;;;;;5072968;28;20025;-68
2022/01/30 11:18:49;;;;;;;15.07;7.60;;;512.00;921.60;;;;;;5072774;28;20032;-68
2022/01/30 11:21:20;;;;;;;13.25;6.40;;;538.50;844.80;;;;;;5072591;28;20462;-68
2022/01/30 11:23:48;;;;;;;9.52;6.10;;;614.60;742.40;;;;;;5072658;28;20400;-68
2022/01/30 11:26:14;;;;;;;15.95;6.70;;;589.70;768.00;;;;;;5072707;28;20017;-69
2022/01/30 11:28:41;;;;;;;18.38;7.78;;;487.00;947.20;;;;;;5071516;28;20385;-68
2022/01/30 11:31:07;;;;;;;11.27;7.78;;;461.70;998.40;;;;;;5072447;28;20154;-67
2022/01/30 11:33:34;;;;;;;12.25;6.18;;;512.60;870.40;;;;;;5072886;28;20094;-68
2022/01/30 11:36:01;;;;;;;14.38;3.97;;;460.80;1049.60;;;;;;5072786;28;20099;-68
2022/01/30 11:38:27;;;;;;;14.43;4.50;;;435.60;1024.00;;;;;;5071381;28;20020;-68
2022/01/30 11:41:09;;;;;;;8.85;5.22;;;409.80;1126.40;;;;;;5072503;28;20028;-68
2022/01/30 11:43:35;;;;;;;17.70;4.63;;;435.60;1024.00;;;;;;5072867;28;20040;-68
2022/01/30 11:46:16;;;;;;;16.13;4.75;;;410.10;1049.60;;;;;;5072561;28;20217;-69
2022/01/30 11:49:03;;;;;;;11.13;4.10;;;358.90;1152.00;;;;;;5072667;28;20028;-69
2022/01/30 11:51:53;;;;;;;21.73;7.72;;;333.50;1228.80;;;;;;5074383;28;20021;-68
2022/01/30 11:54:43;;;;;;;19.75;4.38;;;333.30;1254.40;;;;;;5076335;28;20479;-67
2022/01/30 11:57:21;;;;;;;14.82;4.35;;;333.30;1280.00;;;;;;5076202;28;20021;-68
2022/01/30 11:59:49;;;;;;;24.52;3.60;;;333.20;1280.00;;;;;;5076064;28;20024;-68
2022/01/30 12:02:35;;;;;;;17.58;6.53;;;333.10;1280.00;;;;;;5075763;28;20087;-69
2022/01/30 12:05:09;;;;;;;13.32;5.57;;;308.00;1305.60;;;;;;5075854;28;20068;-68
2022/01/30 12:07:38;;;;;;;24.58;3.78;;;332.80;1331.20;;;;;;5075879;28;20028;-69
2022/01/30 12:10:16;;;;;;;70.13;6.30;;;332.80;1331.20;;;;;;5075828;28;20017;-68
2022/01/30 12:12:55;;;;;;;17.90;3.22;;;332.80;1305.60;;;;;;5075336;28;20021;-69
2022/01/30 12:15:41;;;;;;;23.88;4.80;;;308.10;1280.00;;;;;;5091049;28;20520;-69
2022/01/30 12:18:25;;;;;;;9.85;4.68;;;308.10;1305.60;;;;;;5061466;28;20044;-69
2022/01/30 12:20:59;;;;;;;9.35;2.75;;;308.00;1331.20;;;;;;5086919;28;20020;-68
2022/01/30 12:23:41;;;;;;;17.25;5.40;;;308.10;1280.00;;;;;;5082122;28;20381;-68
2022/01/30 12:26:14;;;;;;;58.45;8.52;;;333.10;1331.20;;;;;;5091872;28;20032;-68
2022/01/30 12:28:50;;;;;;;14.10;6.72;;;333.40;1280.00;;;;;;5093021;28;20455;-68
2022/01/30 12:31:38;;;;;;;24.92;12.65;;;333.40;1280.00;;;;;;5065213;28;20021;-68
2022/01/30 12:34:08;;;;;;;14.85;7.13;;;333.60;1280.00;;;;;;5088614;28;20016;-68
2022/01/30 12:36:36;;;;;;;27.70;13.98;;;358.50;1254.40;;;;;;5104132;28;20035;-68
2022/01/30 12:39:14;;;;;;;34.78;5.82;;;358.50;1203.20;;;;;;5091703;28;20125;-69
2022/01/30 12:41:41;;;;;;;61.90;33.50;;;358.40;1228.80;;;;;;5087420;28;20052;-69
2022/01/30 12:44:14;;;;;;;13.73;5.78;;;358.80;1203.20;;;;;;5085953;28;20043;-68
2022/01/30 12:46:46;;;;;;;16.70;9.95;;;358.90;1177.60;;;;;;5091351;28;20035;-68
2022/01/30 12:49:19;;;;;;;13.00;5.72;;;358.80;1203.20;;;;;;5086384;28;20016;-70
2022/01/30 12:51:52;;;;;;;23.77;11.23;;;358.70;1203.20;;;;;;5083028;28;20385;-69
2022/01/30 12:54:23;;;;;;;46.90;23.63;;;359.10;1152.00;;;;;;5086814;28;20029;-68
2022/01/30 12:56:50;;;;;;;14.80;3.53;;;384.40;1126.40;;;;;;5083863;28;20020;-69
2022/01/30 12:59:17;;;;;;;32.20;14.88;;;358.70;1152.00;;;;;;5082615;28;20415;-69
2022/01/30 13:01:47;;;;;;;32.75;19.73;;;410.40;1075.20;;;;;;5090123;28;20028;-69
2022/01/30 13:04:17;;;;;;;24.27;10.93;;;461.50;972.80;;;;;;5082010;28;20082;-69
2022/01/30 13:06:51;;;;;;;23.35;13.93;;;512.00;896.00;;;;;;5085453;28;20020;-69
2022/01/30 13:09:22;;;;;;;30.85;20.08;;;461.60;972.80;;;;;;5079230;28;20020;-69
2022/01/30 13:11:49;;;;;;;21.27;12.18;;;461.60;998.40;;;;;;5088904;28;20031;-72